Time;durP1;ratioP1;P1;durP2;ratioP2;P2;SDS_P1;SDS_P2;PMS_P1;PMS_P2;Temp;Humidity;BMP_temperature;BMP_pressure;BME280_temperature;BME280_humidity;BME280_pressure;Samples;Min_cycle;Max_cycle;Signal;HPM_P1;HPM_P2
2022/12/14 00:01:32;;;;;;;32.25;20.33;;;1.20;99.90;;;;;;5013470;28;20029;-76
2022/12/14 00:03:58;;;;;;;30.05;18.52;;;1.30;99.90;;;;;;5013495;28;20026;-78
2022/12/14 00:06:26;;;;;;;34.53;21.67;;;1.30;99.90;;;;;;4995687;28;20555;-77
2022/12/14 00:08:54;;;;;;;31.08;19.73;;;1.30;99.90;;;;;;5013282;28;20495;-77
2022/12/14 00:11:21;;;;;;;30.85;19.50;;;1.40;99.90;;;;;;5013031;28;20025;-76
2022/12/14 00:14:00;;;;;;;29.85;18.45;;;1.40;99.90;;;;;;5009000;28;20456;-75
2022/12/14 00:16:28;;;;;;;30.65;18.30;;;1.40;99.90;;;;;;5012396;28;20450;-77
2022/12/14 00:18:56;;;;;;;32.60;17.95;;;1.30;99.90;;;;;;5012993;28;20029;-77
2022/12/14 00:21:23;;;;;;;33.80;19.83;;;1.30;99.90;;;;;;5012179;28;20119;-74
2022/12/14 00:23:50;;;;;;;32.15;18.52;;;1.40;99.90;;;;;;5009768;28;20061;-77
2022/12/14 00:26:22;;;;;;;35.08;19.35;;;1.40;99.90;;;;;;5011143;28;20025;-76
2022/12/14 00:28:49;;;;;;;32.08;19.38;;;1.30;99.90;;;;;;5013115;28;20032;-76
2022/12/14 00:31:15;;;;;;;36.92;20.20;;;1.40;99.90;;;;;;5009907;28;20026;-74
2022/12/14 00:33:42;;;;;;;32.00;18.73;;;1.20;99.90;;;;;;5011741;28;20136;-75
2022/12/14 00:36:09;;;;;;;31.55;19.50;;;1.20;99.90;;;;;;5011196;28;20014;-77
2022/12/14 00:38:36;;;;;;;34.67;21.15;;;1.20;99.90;;;;;;5011645;28;20429;-77
2022/12/14 00:41:03;;;;;;;32.10;20.15;;;1.20;99.90;;;;;;5018611;28;20017;-76
2022/12/14 00:43:29;;;;;;;30.95;18.70;;;1.10;99.90;;;;;;5017640;28;20503;-76
2022/12/14 00:45:56;;;;;;;37.60;23.40;;;1.10;99.90;;;;;;5010663;28;20078;-75
2022/12/14 00:48:23;;;;;;;32.47;19.30;;;1.10;99.90;;;;;;5010006;28;20038;-77
2022/12/14 00:50:51;;;;;;;33.22;20.25;;;1.10;99.90;;;;;;5010697;28;20025;-75
2022/12/14 00:53:17;;;;;;;31.25;19.95;;;1.10;99.90;;;;;;5010617;28;20408;-75
2022/12/14 00:55:45;;;;;;;31.30;19.63;;;1.10;99.90;;;;;;5010033;28;20025;-78
2022/12/14 00:58:13;;;;;;;34.20;20.08;;;1.00;99.90;;;;;;5011186;28;20469;-76
2022/12/14 01:00:39;;;;;;;33.15;19.88;;;1.00;99.90;;;;;;5011312;28;20044;-75
2022/12/14 01:03:06;;;;;;;31.60;19.90;;;1.10;99.90;;;;;;5011263;28;20032;-76
2022/12/14 01:05:34;;;;;;;32.25;20.50;;;1.00;99.90;;;;;;5010979;28;20050;-77
2022/12/14 01:08:00;;;;;;;32.58;19.52;;;1.10;99.90;;;;;;5011427;28;20022;-76
2022/12/14 01:10:26;;;;;;;35.28;20.77;;;1.20;99.90;;;;;;5010055;28;20101;-78
2022/12/14 01:12:52;;;;;;;32.88;21.27;;;1.20;99.90;;;;;;5012151;28;20042;-75
2022/12/14 01:15:18;;;;;;;34.35;22.48;;;1.20;99.90;;;;;;5011804;28;20030;-76
2022/12/14 01:17:44;;;;;;;31.75;20.23;;;1.10;99.90;;;;;;5011842;28;20036;-77
2022/12/14 01:20:10;;;;;;;32.92;20.58;;;1.20;99.90;;;;;;5011722;28;20018;-76
2022/12/14 01:22:37;;;;;;;30.63;19.67;;;1.10;99.90;;;;;;5011365;28;20044;-77
2022/12/14 01:25:04;;;;;;;33.30;20.50;;;1.10;99.90;;;;;;5011208;28;20033;-77
2022/12/14 01:27:30;;;;;;;32.92;20.23;;;1.20;99.90;;;;;;5011674;28;20022;-77
2022/12/14 01:29:56;;;;;;;34.60;21.02;;;1.20;99.90;;;;;;5011850;28;20026;-77
2022/12/14 01:32:21;;;;;;;35.05;22.50;;;1.20;99.90;;;;;;5011664;28;20477;-77
2022/12/14 01:34:48;;;;;;;35.42;22.65;;;1.30;99.90;;;;;;5011909;28;20049;-77
2022/12/14 01:37:13;;;;;;;35.10;21.05;;;1.30;99.90;;;;;;5015605;28;20037;-77
2022/12/14 01:39:39;;;;;;;33.13;20.27;;;1.20;99.90;;;;;;5015760;28;20033;-76
2022/12/14 01:42:13;;;;;;;37.28;22.50;;;1.20;99.90;;;;;;5015566;28;20098;-78
2022/12/14 01:44:39;;;;;;;34.22;20.95;;;1.20;99.90;;;;;;5015452;28;20965;-77
2022/12/14 01:47:24;;;;;;;32.35;21.17;;;1.30;99.90;;;;;;5013370;28;20040;-76
2022/12/14 01:49:56;;;;;;;32.50;19.95;;;1.20;99.90;;;;;;5012962;28;20076;-76
2022/12/14 01:52:39;;;;;;;32.28;20.33;;;1.20;99.90;;;;;;5013156;28;20064;-78
2022/12/14 01:55:15;;;;;;;33.78;21.17;;;1.30;99.90;;;;;;5015259;28;20045;-76
2022/12/14 01:58:09;;;;;;;30.77;20.63;;;1.40;99.90;;;;;;5015007;28;20473;-76
2022/12/14 02:00:35;;;;;;;;;;;1.40;99.90;;;;;;4958200;28;20039;-75
2022/12/14 02:03:16;;;;;;;33.17;21.42;;;1.40;99.90;;;;;;4975685;28;19910;-77
2022/12/14 02:05:52;;;;;;;35.25;21.98;;;1.30;99.90;;;;;;4973762;28;20046;-76
2022/12/14 02:08:20;;;;;;;31.63;20.08;;;1.40;99.90;;;;;;4974070;28;20081;-76
2022/12/14 02:10:48;;;;;;;30.20;19.00;;;1.30;99.90;;;;;;4973669;28;20601;-77
2022/12/14 02:13:24;;;;;;;34.17;20.50;;;1.40;99.90;;;;;;4973652;28;20138;-76
2022/12/14 02:15:51;;;;;;;33.97;20.52;;;1.40;99.90;;;;;;4974160;28;20039;-77
2022/12/14 02:18:23;;;;;;;34.28;20.23;;;1.40;99.90;;;;;;4974664;28;20150;-75
2022/12/14 02:21:05;;;;;;;33.23;19.17;;;1.40;99.90;;;;;;4973828;28;20043;-78
2022/12/14 02:23:49;;;;;;;27.98;18.80;;;1.50;99.90;;;;;;4973746;28;20039;-79
2022/12/14 02:26:39;;;;;;;33.17;19.15;;;1.50;99.90;;;;;;4973578;28;20033;-76
2022/12/14 02:29:29;;;;;;;28.98;19.13;;;1.60;99.90;;;;;;4984381;28;20133;-78
2022/12/14 02:32:10;;;;;;;28.75;19.13;;;1.50;99.90;;;;;;4975413;28;20135;-76
2022/12/14 02:35:20;;;;;;;30.77;19.73;;;1.50;99.90;;;;;;4973553;28;20499;-77
2022/12/14 02:38:07;;;;;;;30.52;19.23;;;1.50;99.90;;;;;;4927593;29;20031;-76
2022/12/14 02:41:00;;;;;;;31.42;18.58;;;1.60;99.90;;;;;;4935304;29;20039;-77
2022/12/14 02:43:36;;;;;;;35.60;20.15;;;1.60;99.90;;;;;;4953943;29;20514;-76
2022/12/14 02:46:26;;;;;;;36.08;21.23;;;1.60;99.90;;;;;;4953886;28;20050;-77
2022/12/14 02:49:08;;;;;;;35.65;20.90;;;1.60;99.90;;;;;;4954221;29;20043;-77
2022/12/14 02:51:40;;;;;;;29.92;20.20;;;1.60;99.90;;;;;;4953431;29;20032;-76
2022/12/14 02:54:15;;;;;;;37.05;21.05;;;1.60;99.90;;;;;;4953552;29;20437;-77
2022/12/14 02:56:54;;;;;;;35.75;21.67;;;1.70;99.90;;;;;;4953928;29;20481;-77
2022/12/14 02:59:22;;;;;;;32.00;19.38;;;1.70;99.90;;;;;;4953767;29;20058;-77
2022/12/14 03:01:50;;;;;;;36.08;22.17;;;1.60;99.90;;;;;;4953594;29;20127;-75
2022/12/14 03:04:16;;;;;;;36.42;22.13;;;1.60;99.90;;;;;;4953600;29;20039;-75
2022/12/14 03:06:56;;;;;;;33.65;21.85;;;1.60;99.90;;;;;;4953576;29;20457;-75
2022/12/14 03:09:22;;;;;;;33.15;20.33;;;1.60;99.90;;;;;;4934529;29;20087;-76
2022/12/14 03:11:55;;;;;;;31.92;20.00;;;1.60;99.90;;;;;;4953377;29;20502;-74
2022/12/14 03:14:39;;;;;;;36.90;22.90;;;1.60;99.90;;;;;;4973556;28;20157;-75
2022/12/14 03:17:33;;;;;;;34.92;20.80;;;1.60;99.90;;;;;;5012294;28;20113;-75
2022/12/14 03:20:05;;;;;;;34.25;21.30;;;1.60;99.90;;;;;;5010489;28;20037;-76
2022/12/14 03:22:33;;;;;;;34.63;20.67;;;1.60;99.90;;;;;;5013014;28;20034;-77
2022/12/14 03:25:03;;;;;;;31.23;19.05;;;1.70;99.90;;;;;;5013197;28;20057;-78
2022/12/14 03:27:44;;;;;;;34.90;20.50;;;1.70;99.90;;;;;;5013675;28;20533;-78
2022/12/14 03:30:16;;;;;;;32.75;19.85;;;1.70;99.90;;;;;;5012654;28;20022;-77
2022/12/14 03:32:51;;;;;;;31.88;18.75;;;1.80;99.90;;;;;;5013665;28;20021;-75
2022/12/14 03:35:41;;;;;;;31.38;20.58;;;1.80;99.90;;;;;;5013409;28;20117;-75
2022/12/14 03:38:16;;;;;;;33.42;19.35;;;1.70;99.90;;;;;;5013632;28;20053;-75
2022/12/14 03:41:00;;;;;;;32.60;19.13;;;1.70;99.90;;;;;;5013621;28;20384;-76
2022/12/14 03:43:32;;;;;;;;;;;1.60;99.90;;;;;;5013631;28;20029;-75
2022/12/14 03:46:13;;;;;;;33.65;21.00;;;1.70;99.90;;;;;;5012070;28;19943;-77
2022/12/14 03:48:50;;;;;;;30.20;19.40;;;1.70;99.90;;;;;;5012488;28;20032;-73
2022/12/14 03:51:35;;;;;;;30.08;19.05;;;1.70;99.90;;;;;;5012062;28;20440;-78
2022/12/14 03:54:04;;;;;;;34.58;21.05;;;1.80;99.90;;;;;;5004616;28;20038;-76
2022/12/14 03:56:53;;;;;;;30.70;19.98;;;1.90;99.90;;;;;;5012154;28;20037;-73
2022/12/14 04:00:03;;;;;;;28.30;18.73;;;1.90;99.90;;;;;;5013458;28;20401;-75
2022/12/14 04:02:56;;;;;;;33.85;20.67;;;1.90;99.90;;;;;;4934122;29;20032;-76
2022/12/14 04:05:33;;;;;;;;;;;1.90;99.90;;;;;;4934342;29;20043;-78
2022/12/14 04:08:06;;;;;;;34.70;20.77;;;1.90;99.90;;;;;;4933763;29;20281;-78
2022/12/14 04:19:24;;;;;;;32.80;21.23;;;1.80;99.90;;;;;;4877011;29;20041;-73
2022/12/14 04:22:01;;;;;;;33.05;20.02;;;1.70;99.90;;;;;;4876852;29;20958;-74
2022/12/14 04:27:34;;;;;;;32.88;19.90;;;1.80;99.90;;;;;;4876968;29;20052;-75
2022/12/14 04:30:01;;;;;;;28.90;18.30;;;1.80;99.90;;;;;;4876631;29;20037;-77
2022/12/14 04:32:46;;;;;;;28.58;19.25;;;1.80;99.90;;;;;;4877142;29;20481;-76
2022/12/14 04:35:35;;;;;;;26.75;17.60;;;1.90;99.90;;;;;;4876808;29;20037;-74
2022/12/14 04:38:15;;;;;;;30.33;17.63;;;2.00;99.90;;;;;;4898190;29;20135;-78
2022/12/14 04:40:53;;;;;;;35.17;20.10;;;2.00;99.90;;;;;;4914627;29;20047;-75
2022/12/14 04:43:25;;;;;;;26.98;17.67;;;2.00;99.90;;;;;;4913963;29;20125;-75
2022/12/14 04:46:00;;;;;;;39.05;24.48;;;2.00;99.90;;;;;;4914296;29;20122;-75
2022/12/14 04:48:51;;;;;;;41.95;23.65;;;2.00;99.90;;;;;;4914235;29;20448;-77
2022/12/14 04:51:30;;;;;;;35.85;21.73;;;2.00;99.90;;;;;;4876075;29;20421;-77
2022/12/14 04:54:08;;;;;;;31.15;19.10;;;2.10;99.90;;;;;;4869552;29;20513;-74
2022/12/14 04:57:00;;;;;;;26.80;16.02;;;2.10;99.90;;;;;;4900895;29;20048;-76
2022/12/14 04:59:27;;;;;;;29.00;18.80;;;2.20;99.90;;;;;;4916289;29;20523;-77
2022/12/14 05:01:57;;;;;;;25.88;16.15;;;2.20;99.90;;;;;;4932948;29;20083;-73
2022/12/14 05:04:53;;;;;;;27.00;16.42;;;2.30;99.90;;;;;;4933162;29;20044;-74
2022/12/14 05:07:25;;;;;;;27.58;16.63;;;2.40;99.90;;;;;;4916989;29;20159;-74
2022/12/14 05:09:59;;;;;;;28.23;18.90;;;2.40;99.90;;;;;;4932215;29;20047;-74
2022/12/14 05:12:28;;;;;;;29.70;18.17;;;2.40;99.90;;;;;;4932676;29;20098;-76
2022/12/14 05:15:22;;;;;;;31.30;18.67;;;2.40;99.90;;;;;;4932427;29;20044;-76
2022/12/14 05:17:48;;;;;;;28.58;17.58;;;2.30;99.90;;;;;;4925367;29;20077;-74
2022/12/14 05:20:29;;;;;;;25.83;15.20;;;2.30;99.90;;;;;;4928851;29;20032;-74
2022/12/14 05:22:55;;;;;;;30.20;17.98;;;2.30;99.90;;;;;;4932801;29;20095;-73
2022/12/14 05:25:21;;;;;;;31.80;18.35;;;2.20;99.90;;;;;;4932638;29;20083;-74
2022/12/14 05:27:47;;;;;;;28.10;15.32;;;2.20;99.90;;;;;;4952068;28;20045;-74
2022/12/14 05:30:13;;;;;;;29.00;18.55;;;2.30;99.90;;;;;;5012140;28;20022;-73
2022/12/14 05:32:38;;;;;;;33.60;17.85;;;2.30;99.90;;;;;;5013409;28;20453;-73
2022/12/14 05:35:06;;;;;;;29.63;16.80;;;2.40;99.90;;;;;;5012141;28;20080;-75
2022/12/14 05:37:38;;;;;;;46.75;30.00;;;2.40;99.90;;;;;;5012837;28;20026;-73
2022/12/14 05:40:05;;;;;;;56.88;33.72;;;2.50;99.90;;;;;;5012018;28;20034;-75
2022/12/14 05:42:31;;;;;;;41.03;26.92;;;2.50;99.90;;;;;;5012185;28;20022;-72
2022/12/14 05:44:57;;;;;;;36.20;23.83;;;2.50;99.90;;;;;;5012357;28;20527;-72
2022/12/14 05:47:23;;;;;;;33.25;19.90;;;2.40;99.90;;;;;;5011858;28;20799;-72
2022/12/14 05:49:48;;;;;;;30.45;19.42;;;2.40;99.90;;;;;;5012369;28;20022;-73
2022/12/14 05:52:14;;;;;;;33.78;21.58;;;2.40;99.90;;;;;;5011467;28;20512;-73
2022/12/14 05:54:40;;;;;;;35.75;20.02;;;2.40;99.90;;;;;;5012054;28;20042;-73
2022/12/14 05:57:06;;;;;;;33.17;19.52;;;2.40;99.90;;;;;;5011996;28;20033;-73
2022/12/14 05:59:32;;;;;;;31.20;18.20;;;2.50;99.90;;;;;;5011912;28;20092;-77
2022/12/14 06:01:58;;;;;;;26.52;17.25;;;2.40;99.90;;;;;;5011621;28;20021;-73
2022/12/14 06:04:24;;;;;;;25.52;17.27;;;2.50;99.90;;;;;;5012138;28;20041;-73
2022/12/14 06:06:50;;;;;;;32.53;19.80;;;2.50;99.90;;;;;;5011672;28;20105;-73
2022/12/14 06:09:17;;;;;;;31.08;21.50;;;2.50;99.90;;;;;;5011963;28;20037;-72
2022/12/14 06:11:44;;;;;;;35.28;22.20;;;2.60;99.90;;;;;;5011567;28;20034;-74
2022/12/14 06:14:10;;;;;;;28.25;16.15;;;2.60;99.90;;;;;;5011936;28;20042;-73
2022/12/14 06:16:40;;;;;;;33.08;19.65;;;2.50;99.90;;;;;;5011843;28;20033;-73
2022/12/14 06:19:06;;;;;;;32.30;20.05;;;2.60;99.90;;;;;;5012784;28;20068;-74
2022/12/14 06:21:35;;;;;;;36.38;21.45;;;2.70;99.90;;;;;;5014136;28;20022;-73
2022/12/14 06:24:01;;;;;;;28.65;17.15;;;2.70;99.90;;;;;;5015251;28;20029;-72
2022/12/14 06:26:29;;;;;;;28.08;15.23;;;2.80;99.90;;;;;;5015689;28;20037;-73
2022/12/14 06:28:56;;;;;;;29.10;16.65;;;2.90;99.90;;;;;;5015187;28;20033;-72
2022/12/14 06:31:24;;;;;;;25.67;16.02;;;2.90;99.90;;;;;;5015376;28;20129;-74
2022/12/14 06:33:52;;;;;;;29.80;16.48;;;3.00;99.90;;;;;;5015327;28;20112;-72
2022/12/14 06:36:23;;;;;;;37.92;21.00;;;2.90;99.90;;;;;;5015164;28;20487;-73
2022/12/14 06:38:50;;;;;;;29.80;17.25;;;2.80;99.90;;;;;;5013771;28;20436;-76
2022/12/14 06:41:16;;;;;;;37.13;23.27;;;2.80;99.90;;;;;;5014961;28;20030;-72
2022/12/14 06:43:42;;;;;;;45.75;26.88;;;2.90;99.90;;;;;;5015091;28;20059;-75
2022/12/14 06:46:10;;;;;;;84.88;49.42;;;2.80;99.90;;;;;;5014968;28;20527;-76
2022/12/14 06:48:36;;;;;;;76.43;46.25;;;2.90;99.90;;;;;;5015020;28;20108;-74
2022/12/14 06:51:04;;;;;;;73.70;47.53;;;2.90;99.90;;;;;;5013671;28;20114;-74
2022/12/14 06:53:30;;;;;;;78.28;45.88;;;3.00;99.90;;;;;;5014618;28;20065;-74
2022/12/14 06:56:14;;;;;;;69.22;42.55;;;3.00;99.90;;;;;;5015091;28;20030;-75
2022/12/14 06:58:41;;;;;;;75.05;45.05;;;3.10;99.90;;;;;;5003123;28;20022;-73
2022/12/14 07:01:13;;;;;;;76.93;44.35;;;3.20;99.90;;;;;;5015099;28;20053;-73
2022/12/14 07:03:40;;;;;;;63.03;37.83;;;3.30;99.90;;;;;;5014539;28;20112;-73
2022/12/14 07:06:06;;;;;;;62.47;38.75;;;3.40;99.90;;;;;;5014584;28;20306;-73
2022/12/14 07:08:35;;;;;;;40.70;24.42;;;3.40;99.90;;;;;;5014761;28;20026;-74
2022/12/14 07:11:10;;;;;;;44.47;28.67;;;3.30;99.90;;;;;;5014605;28;20540;-75
2022/12/14 07:13:36;;;;;;;50.65;30.35;;;3.40;99.90;;;;;;5014628;28;20041;-73
2022/12/14 07:16:04;;;;;;;47.20;28.25;;;3.50;99.90;;;;;;5014367;28;20030;-76
2022/12/14 07:18:31;;;;;;;42.25;25.70;;;3.60;99.90;;;;;;5018370;28;20481;-74
2022/12/14 07:21:02;;;;;;;45.95;28.60;;;3.70;99.90;;;;;;5014369;28;20065;-73
2022/12/14 07:23:29;;;;;;;40.25;24.48;;;3.80;99.90;;;;;;5013779;28;20547;-74
2022/12/14 07:26:07;;;;;;;34.63;20.67;;;3.80;99.90;;;;;;5014375;28;20385;-74
2022/12/14 07:28:36;;;;;;;30.80;18.10;;;3.90;99.90;;;;;;5014197;28;20033;-76
2022/12/14 07:31:05;;;;;;;39.20;23.58;;;3.90;99.90;;;;;;5014054;28;20018;-74
2022/12/14 07:33:31;;;;;;;33.80;21.13;;;3.90;99.90;;;;;;5011542;28;20049;-75
2022/12/14 07:36:05;;;;;;;39.65;24.50;;;4.00;99.90;;;;;;5014086;28;20030;-74
2022/12/14 07:38:32;;;;;;;47.45;30.98;;;4.00;99.90;;;;;;5013292;28;20030;-76
2022/12/14 07:41:02;;;;;;;47.33;33.08;;;3.90;99.90;;;;;;5013308;28;20034;-74
2022/12/14 07:43:28;;;;;;;55.53;33.25;;;3.90;99.90;;;;;;5013116;28;20477;-74
2022/12/14 07:46:01;;;;;;;44.78;24.85;;;3.90;99.90;;;;;;5006133;28;20038;-75
2022/12/14 07:48:27;;;;;;;36.95;23.75;;;3.80;99.90;;;;;;5012281;28;20120;-74
2022/12/14 07:50:54;;;;;;;37.83;24.45;;;3.90;99.90;;;;;;5010523;28;20100;-72
2022/12/14 07:53:19;;;;;;;39.33;26.08;;;3.80;99.90;;;;;;5004052;28;20053;-77
2022/12/14 07:55:45;;;;;;;38.20;23.10;;;3.60;99.90;;;;;;5014096;28;20042;-74
2022/12/14 07:58:11;;;;;;;38.22;24.73;;;3.50;99.90;;;;;;5012784;28;20084;-77
2022/12/14 08:00:37;;;;;;;35.67;22.55;;;3.60;99.90;;;;;;5012029;28;20477;-75
2022/12/14 08:03:03;;;;;;;54.05;24.90;;;3.40;99.90;;;;;;5008966;28;20393;-76
2022/12/14 08:05:28;;;;;;;41.85;23.15;;;3.50;99.90;;;;;;5013749;28;20026;-77
2022/12/14 08:07:54;;;;;;;36.55;22.08;;;3.50;99.90;;;;;;5013058;28;20513;-77
2022/12/14 08:10:20;;;;;;;28.08;17.80;;;3.60;99.90;;;;;;5005593;28;20034;-74
2022/12/14 08:12:49;;;;;;;31.02;19.30;;;3.70;99.90;;;;;;4996167;28;20050;-77
2022/12/14 08:15:14;;;;;;;30.48;19.98;;;3.80;99.90;;;;;;5011956;28;20481;-76
2022/12/14 08:17:40;;;;;;;34.58;20.75;;;3.70;99.90;;;;;;5013239;28;20029;-78
2022/12/14 08:20:06;;;;;;;29.25;17.10;;;3.70;99.90;;;;;;5013343;28;20557;-76
2022/12/14 08:22:32;;;;;;;29.25;17.80;;;3.90;99.90;;;;;;5011595;28;20030;-77
2022/12/14 08:24:58;;;;;;;33.60;19.55;;;3.90;99.90;;;;;;5012097;28;20049;-77
2022/12/14 08:27:24;;;;;;;27.40;15.88;;;3.90;99.90;;;;;;5006715;28;20041;-75
2022/12/14 08:29:49;;;;;;;29.27;19.00;;;3.90;99.90;;;;;;5009542;28;20034;-73
2022/12/14 08:32:15;;;;;;;32.97;19.63;;;4.00;99.90;;;;;;5003567;28;20018;-74
2022/12/14 08:34:41;;;;;;;33.60;21.52;;;3.80;99.90;;;;;;5011418;28;20038;-78
2022/12/14 08:37:07;;;;;;;30.52;20.08;;;4.00;99.90;;;;;;5010255;28;20054;-73
2022/12/14 08:39:33;;;;;;;31.70;21.65;;;4.10;99.90;;;;;;5011341;28;20038;-78
2022/12/14 08:41:58;;;;;;;43.70;29.38;;;4.00;99.90;;;;;;5007581;28;20022;-73
2022/12/14 08:44:24;;;;;;;43.38;27.75;;;4.20;99.90;;;;;;5010834;28;20417;-74
2022/12/14 08:46:50;;;;;;;39.28;23.95;;;4.20;99.90;;;;;;5011279;28;20022;-77
2022/12/14 08:49:16;;;;;;;53.83;32.70;;;4.30;99.90;;;;;;5012702;28;20037;-74
2022/12/14 08:51:42;;;;;;;54.88;33.38;;;4.30;99.90;;;;;;5005762;28;20038;-74
2022/12/14 08:54:07;;;;;;;55.78;33.35;;;4.40;99.90;;;;;;5004719;28;20046;-74
2022/12/14 08:56:33;;;;;;;41.33;25.40;;;4.40;99.90;;;;;;5007512;28;20473;-78
2022/12/14 08:58:59;;;;;;;33.90;21.60;;;4.50;99.90;;;;;;5012508;28;20029;-76
2022/12/14 09:01:27;;;;;;;40.13;25.58;;;4.50;99.90;;;;;;5012391;28;20097;-76
2022/12/14 09:03:53;;;;;;;34.85;20.63;;;4.60;99.90;;;;;;5012872;28;20036;-77
2022/12/14 09:06:22;;;;;;;45.42;24.92;;;4.60;99.90;;;;;;5012662;28;20029;-77
2022/12/14 09:08:48;;;;;;;46.38;27.60;;;4.70;99.90;;;;;;5012561;28;20026;-74
2022/12/14 09:11:16;;;;;;;32.45;19.80;;;4.70;99.90;;;;;;5012338;28;20025;-77
2022/12/14 09:13:43;;;;;;;36.22;21.50;;;4.60;99.90;;;;;;5012354;28;20181;-74
2022/12/14 09:16:20;;;;;;;32.42;20.95;;;4.80;99.90;;;;;;5010198;28;20062;-77
2022/12/14 09:18:48;;;;;;;30.13;19.25;;;4.80;99.90;;;;;;5003316;28;20126;-77
2022/12/14 09:21:14;;;;;;;30.65;17.40;;;4.80;99.90;;;;;;5012361;28;20022;-77
2022/12/14 09:23:41;;;;;;;26.55;17.05;;;4.90;99.90;;;;;;5012328;28;20030;-77
2022/12/14 09:26:18;;;;;;;37.33;19.67;;;4.90;99.90;;;;;;5012476;28;20463;-75
2022/12/14 09:28:48;;;;;;;33.65;17.75;;;4.90;99.90;;;;;;5009343;28;20327;-74
2022/12/14 09:31:19;;;;;;;31.85;19.85;;;5.00;99.90;;;;;;5001077;28;20041;-73
2022/12/14 09:33:45;;;;;;;27.30;16.25;;;5.00;99.90;;;;;;5007765;28;20056;-75
2022/12/14 09:36:16;;;;;;;30.05;17.25;;;4.90;99.90;;;;;;4997114;28;20454;-75
2022/12/14 09:38:43;;;;;;;29.35;17.80;;;4.90;99.90;;;;;;5005252;28;20021;-73
2022/12/14 09:41:14;;;;;;;29.48;18.70;;;4.90;99.90;;;;;;5011080;28;20469;-73
2022/12/14 09:43:44;;;;;;;28.42;17.33;;;5.00;99.90;;;;;;5004062;28;20081;-75
2022/12/14 09:46:17;;;;;;;28.45;17.10;;;5.00;99.90;;;;;;5012393;28;20038;-73
2022/12/14 09:48:44;;;;;;;30.38;18.27;;;5.10;99.90;;;;;;5010174;28;20481;-72
2022/12/14 09:51:15;;;;;;;34.15;19.58;;;5.20;99.90;;;;;;5008889;28;20034;-75
2022/12/14 09:53:44;;;;;;;32.53;18.17;;;5.40;99.90;;;;;;5026363;28;20049;-75
2022/12/14 09:56:16;;;;;;;28.15;16.73;;;5.50;99.90;;;;;;5013624;28;20030;-73
2022/12/14 09:58:53;;;;;;;30.30;18.08;;;5.60;99.90;;;;;;5015115;28;20362;-73
2022/12/14 10:01:22;;;;;;;32.13;18.85;;;5.60;99.90;;;;;;5015410;28;20052;-77
2022/12/14 10:04:18;;;;;;;29.35;18.33;;;5.60;99.90;;;;;;5012848;28;20026;-74
2022/12/14 10:06:54;;;;;;;32.95;20.00;;;5.70;99.90;;;;;;5015694;28;20034;-77
2022/12/14 10:09:47;;;;;;;35.20;20.83;;;5.90;99.90;;;;;;5005257;28;20034;-77
2022/12/14 10:12:34;;;;;;;33.88;19.02;;;6.00;99.90;;;;;;5000441;28;20474;-74
2022/12/14 10:15:33;;;;;;;28.88;17.05;;;6.10;99.90;;;;;;5011262;28;20041;-74
2022/12/14 10:18:26;;;;;;;41.72;20.38;;;6.00;99.90;;;;;;4954710;29;20236;-75
2022/12/14 10:21:12;;;;;;;34.75;19.98;;;6.20;99.90;;;;;;4955173;29;20051;-75
2022/12/14 10:23:45;;;;;;;28.25;18.83;;;6.30;99.90;;;;;;4955064;29;20595;-73
2022/12/14 10:26:16;;;;;;;26.98;16.83;;;6.30;99.90;;;;;;4954258;29;20031;-76
2022/12/14 10:28:49;;;;;;;32.67;17.00;;;6.40;99.90;;;;;;4954934;28;20043;-74
2022/12/14 10:31:27;;;;;;;32.90;22.23;;;6.30;99.90;;;;;;4954046;29;20035;-77
2022/12/14 10:34:01;;;;;;;33.35;20.02;;;6.40;99.90;;;;;;4949360;29;20527;-76
2022/12/14 10:36:36;;;;;;;27.85;16.15;;;6.50;99.90;;;;;;4954599;29;20039;-76
2022/12/14 10:39:20;;;;;;;30.95;18.60;;;6.60;99.90;;;;;;4950783;29;20027;-76
2022/12/14 10:41:56;;;;;;;27.67;15.02;;;6.60;99.90;;;;;;4947475;29;20521;-76
2022/12/14 10:44:53;;;;;;;29.02;15.57;;;6.50;99.90;;;;;;4942332;29;20043;-76
2022/12/14 10:47:35;;;;;;;27.85;15.43;;;6.50;99.90;;;;;;4961912;28;20055;-75
2022/12/14 10:50:19;;;;;;;33.80;20.85;;;6.40;99.90;;;;;;4955528;28;20475;-77
2022/12/14 10:52:49;;;;;;;27.92;17.73;;;6.40;99.90;;;;;;4938268;29;20059;-73
2022/12/14 10:55:23;;;;;;;30.45;17.92;;;6.40;99.90;;;;;;4982412;28;20045;-73
2022/12/14 10:57:49;;;;;;;32.10;17.90;;;6.30;99.90;;;;;;5014775;28;20036;-77
2022/12/14 11:00:16;;;;;;;30.65;19.23;;;6.30;99.90;;;;;;5014676;28;20374;-77
2022/12/14 11:02:49;;;;;;;29.75;16.55;;;6.30;99.90;;;;;;5014538;28;20038;-77
2022/12/14 11:05:58;;;;;;;32.83;19.30;;;6.20;99.90;;;;;;5011324;28;20026;-74
2022/12/14 11:08:47;;;;;;;32.10;17.90;;;6.40;99.90;;;;;;4952827;29;20503;-75
2022/12/14 11:11:31;;;;;;;32.45;18.13;;;6.40;99.90;;;;;;4954266;29;20038;-75
2022/12/14 11:14:08;;;;;;;31.98;18.50;;;6.40;99.90;;;;;;4953370;29;20410;-76
2022/12/14 11:16:37;;;;;;;35.63;21.27;;;6.50;99.90;;;;;;4952855;29;20035;-76
2022/12/14 11:19:08;;;;;;;26.27;15.57;;;6.50;99.90;;;;;;4953939;29;20067;-75
2022/12/14 11:21:37;;;;;;;32.85;17.52;;;6.40;99.90;;;;;;4953538;29;20039;-75
2022/12/14 11:24:04;;;;;;;37.70;18.77;;;6.40;99.90;;;;;;4953608;29;20055;-74
2022/12/14 11:26:33;;;;;;;33.83;18.98;;;6.50;99.90;;;;;;4953052;29;20054;-73
2022/12/14 11:29:01;;;;;;;36.78;19.27;;;6.50;99.90;;;;;;4953553;29;20027;-75
2022/12/14 11:31:43;;;;;;;31.60;18.40;;;6.60;99.90;;;;;;4953169;28;20042;-76
2022/12/14 11:34:30;;;;;;;32.55;18.40;;;6.60;99.90;;;;;;4937292;29;20118;-76
2022/12/14 11:37:13;;;;;;;27.00;18.60;;;6.80;99.90;;;;;;4953191;29;20035;-73
2022/12/14 11:39:41;;;;;;;30.17;17.05;;;6.90;99.90;;;;;;4994610;28;20512;-74
2022/12/14 11:42:14;;;;;;;36.10;20.42;;;6.90;99.90;;;;;;5011794;28;20053;-75
2022/12/14 11:44:41;;;;;;;27.73;16.38;;;6.80;99.90;;;;;;5003144;28;20021;-76
2022/12/14 11:47:25;;;;;;;32.55;19.65;;;6.60;99.90;;;;;;5010293;28;20026;-78
2022/12/14 11:49:56;;;;;;;35.63;22.10;;;6.60;99.90;;;;;;5001644;28;20109;-78
2022/12/14 11:52:42;;;;;;;40.05;23.13;;;6.70;99.90;;;;;;5008649;28;20054;-76
2022/12/14 11:55:19;;;;;;;39.25;22.10;;;6.70;99.90;;;;;;5006876;28;20084;-76
2022/12/14 11:57:57;;;;;;;40.10;23.65;;;6.80;99.90;;;;;;5001716;28;20030;-76
2022/12/14 12:00:29;;;;;;;25.48;15.05;;;6.90;99.90;;;;;;5011338;28;20034;-74
2022/12/14 12:02:58;;;;;;;37.50;22.20;;;6.80;99.90;;;;;;5013446;28;20034;-76
2022/12/14 12:05:25;;;;;;;63.05;34.95;;;6.80;99.90;;;;;;5013356;28;20045;-77
2022/12/14 12:07:56;;;;;;;38.70;23.15;;;7.00;99.90;;;;;;5013446;28;20033;-75
2022/12/14 12:10:23;;;;;;;31.50;15.88;;;7.00;99.90;;;;;;5012809;28;20149;-76
2022/12/14 12:12:58;;;;;;;37.95;23.10;;;6.80;99.90;;;;;;5012399;28;20027;-71
2022/12/14 12:15:40;;;;;;;25.60;15.02;;;6.90;99.90;;;;;;5013229;28;20537;-73
2022/12/14 12:18:20;;;;;;;31.70;17.75;;;6.80;99.90;;;;;;5011231;28;20025;-74
2022/12/14 12:20:58;;;;;;;27.13;18.30;;;6.80;99.90;;;;;;5013399;28;20026;-77
2022/12/14 12:23:42;;;;;;;24.48;16.55;;;6.80;99.90;;;;;;5013055;28;20041;-74
2022/12/14 12:26:18;;;;;;;35.17;19.42;;;6.70;99.90;;;;;;5019521;28;20113;-76
2022/12/14 12:28:58;;;;;;;31.85;18.70;;;6.70;99.90;;;;;;5014273;28;20029;-76
2022/12/14 12:31:44;;;;;;;32.83;19.88;;;6.70;99.90;;;;;;4992213;28;20041;-76
2022/12/14 12:34:31;;;;;;;29.05;15.95;;;6.70;99.90;;;;;;5008770;28;20066;-76
2022/12/14 12:37:02;;;;;;;27.63;15.63;;;6.60;99.90;;;;;;5012687;28;20026;-74
2022/12/14 12:39:30;;;;;;;27.17;15.75;;;6.60;99.90;;;;;;5012534;28;20389;-72
2022/12/14 12:42:39;;;;;;;30.02;17.77;;;6.60;99.90;;;;;;5010550;28;20441;-75
2022/12/14 12:45:23;;;;;;;25.73;16.05;;;6.50;99.90;;;;;;5009845;28;20037;-75
2022/12/14 12:48:33;;;;;;;32.78;18.27;;;6.50;99.90;;;;;;5009010;28;20041;-75
2022/12/14 12:51:35;;;;;;;32.22;16.40;;;6.60;99.90;;;;;;5013176;28;20373;-74
2022/12/14 12:54:10;;;;;;;31.23;17.75;;;6.60;99.90;;;;;;5005056;28;20054;-73
2022/12/14 12:56:54;;;;;;;29.58;16.70;;;6.70;99.90;;;;;;5004740;28;20034;-74
2022/12/14 12:59:29;;;;;;;25.23;16.42;;;6.80;99.90;;;;;;5013546;28;20038;-75
2022/12/14 13:02:04;;;;;;;30.25;16.88;;;6.90;99.90;;;;;;5013258;28;20473;-74
2022/12/14 13:04:51;;;;;;;31.48;17.10;;;6.90;99.90;;;;;;5013606;28;20479;-74
2022/12/14 13:07:20;;;;;;;26.75;16.60;;;6.80;99.90;;;;;;5013066;28;20076;-74
2022/12/14 13:09:51;;;;;;;26.05;15.65;;;6.90;99.90;;;;;;5012556;28;20026;-74
2022/12/14 13:12:37;;;;;;;26.65;16.48;;;6.80;99.90;;;;;;5013497;28;20022;-74
2022/12/14 13:15:13;;;;;;;29.20;19.23;;;6.80;99.90;;;;;;5000582;28;20103;-74
2022/12/14 13:17:46;;;;;;;32.20;18.08;;;6.80;99.90;;;;;;5013366;28;20041;-74
2022/12/14 13:20:33;;;;;;;30.15;17.25;;;6.70;99.90;;;;;;5013118;28;20080;-74